Querino, Arizona
Current Conditions -  °F | °C
As of 2:53 AM on Thursday 29 Jan 2015 (Local Time) from KRQE Reporting Station
Clear Clear  
Wind Chill: 33°   Ceiling: Unl
Heat Index: 33°   Visibility: 10mi
Dew Point: 27°   Wind: 3mph
Humidity: 78%   Direction: 190°S
Pressure: 30.31"   Gusts: NA
Location:  35.2918°N, 109.157°W
Report Text: KRQE 290953Z AUTO 19003KT 10SM CLR 01/M03 A3031 RMK AO2 SLP216 T00061028 TSNO
Loading
Personal Weather Stations






























Interactive Weather Map New forecast layout! Learn more

10-Day Weather Forecast

Advertisements
Track Severe Weather on mobile